Kadena Air Base, Japan
Current Conditions -  °F | °C
As of 5:14 AM on Saturday 01 Nov 2014 (Local Time) from RODN Reporting Station
Clear Clear  
Wind Chill: 73°   Ceiling: Unl
Heat Index: 73°   Visibility: 6mi
Dew Point: 73°   Wind: 2mph
Humidity: 100%   Direction: 150°SSE
Pressure: 29.91"   Gusts: NA
Location:  26.37°N, 127.75°E
Report Text: RODN 312014Z AUTO 15002KT 9999 CLR 23/23 A2991 RMK AO2 $
Loading
Personal Weather Stations






























Interactive Weather Map
Tropical Storm Tracking
New forecast layout! Learn more

10-Day Weather Forecast

Advertisements
Track Severe Weather on mobile